Goodman, Mississippi
Current Conditions -  °F | °C
As of 11:53 PM on Saturday 22 Nov 2014 (Local Time) from KGWO Reporting Station
Clear Clear  
Wind Chill: 57°   Ceiling: Unl
Heat Index: 57°   Visibility: 10mi
Dew Point: 51°   Wind: 3mph
Humidity: 81%   Direction: 90°E
Pressure: 29.92"   Gusts: NA
Location:  32.97°N, 89.91°W
Report Text: KGWO 230553Z AUTO 09003KT 10SM CLR 14/11 A2992 RMK AO2 SLP129 T01390106 10167 20122 402280111 58027 TSNO
Loading
Personal Weather Stations






























Interactive Weather Map New forecast layout! Learn more

10-Day Weather Forecast

Advertisements
Track Severe Weather on mobile